Time;durP1;ratioP1;P1;durP2;ratioP2;P2;SDS_P1;SDS_P2;PMS_P1;PMS_P2;Temp;Humidity;BMP_temperature;BMP_pressure;BME280_temperature;BME280_humidity;BME280_pressure;Samples;Min_cycle;Max_cycle;Signal;HPM_P1;HPM_P2
2022/10/27 00:00:47;;;;;;;29.38;8.02;;;;;;;;;;6125620;23;20014;-89
2022/10/27 00:03:14;;;;;;;21.92;6.97;;;;;;;;;;6151617;23;20009;-90
2022/10/27 00:05:40;;;;;;;15.07;7.75;;;;;;;;;;6126484;23;20233;-90
2022/10/27 00:08:06;;;;;;;16.30;7.30;;;;;;;;;;6128499;23;20014;-90
2022/10/27 00:10:32;;;;;;;20.73;6.68;;;;;;;;;;6124879;23;20014;-89
2022/10/27 00:12:59;;;;;;;24.25;7.07;;;;;;;;;;6122867;23;20067;-89
2022/10/27 00:15:25;;;;;;;25.73;7.35;;;;;;;;;;6124855;23;20021;-89
2022/10/27 00:17:51;;;;;;;13.85;6.20;;;;;;;;;;6148962;23;20020;-88
2022/10/27 00:20:17;;;;;;;19.65;6.03;;;;;;;;;;6150854;23;20064;-88
2022/10/27 00:22:43;;;;;;;16.00;5.65;;;;;;;;;;6124790;23;20353;-90
2022/10/27 00:25:09;;;;;;;24.30;6.55;;;;;;;;;;6123960;23;20477;-90
2022/10/27 00:27:35;;;;;;;19.33;6.32;;;;;;;;;;6121707;23;20412;-89
2022/10/27 00:30:01;;;;;;;17.95;5.70;;;;;;;;;;6149395;23;20056;-91
2022/10/27 00:32:27;;;;;;;14.23;5.63;;;;;;;;;;6122499;23;20037;-89
2022/10/27 00:34:53;;;;;;;14.25;6.07;;;;;;;;;;6125125;23;20121;-89
2022/10/27 00:37:19;;;;;;;12.00;5.05;;;;;;;;;;6148843;23;20014;-89
2022/10/27 00:39:45;;;;;;;20.58;5.25;;;;;;;;;;6123207;23;20017;-89
2022/10/27 00:42:12;;;;;;;18.85;5.30;;;;;;;;;;6123226;23;20010;-90
2022/10/27 00:44:40;;;;;;;17.52;6.60;;;;;;;;;;6147693;23;20005;-89
2022/10/27 00:47:06;;;;;;;15.50;5.45;;;;;;;;;;6150542;23;20456;-90
2022/10/27 00:49:47;;;;;;;14.93;6.05;;;;;;;;;;6158619;22;20057;-89
2022/10/27 00:52:27;;;;;;;17.27;5.57;;;;;;;;;;6213164;23;20068;-89
2022/10/27 00:54:55;;;;;;;18.17;5.18;;;;;;;;;;6210893;23;20008;-89
2022/10/27 00:57:22;;;;;;;16.63;5.72;;;;;;;;;;6210625;23;20091;-90
2022/10/27 00:59:48;;;;;;;16.90;5.22;;;;;;;;;;6186483;23;20013;-90
2022/10/27 01:02:14;;;;;;;21.70;5.82;;;;;;;;;;6184979;23;20036;-89
2022/10/27 01:04:47;;;;;;;16.80;5.72;;;;;;;;;;6185148;23;20036;-91
2022/10/27 01:07:14;;;;;;;19.85;6.03;;;;;;;;;;6210343;23;20035;-89
2022/10/27 01:09:41;;;;;;;15.60;7.05;;;;;;;;;;6211437;23;20058;-89
2022/10/27 01:12:07;;;;;;;21.10;5.55;;;;;;;;;;6186148;23;20024;-89
2022/10/27 01:14:33;;;;;;;17.08;6.63;;;;;;;;;;6185584;23;20016;-88
2022/10/27 01:17:17;;;;;;;17.63;6.20;;;;;;;;;;6210003;23;20013;-90
2022/10/27 01:19:43;;;;;;;23.20;6.45;;;;;;;;;;6210055;23;20005;-90
2022/10/27 01:22:15;;;;;;;18.30;7.18;;;;;;;;;;6211371;23;20015;-91
2022/10/27 01:24:52;;;;;;;17.63;6.10;;;;;;;;;;6206820;23;20000;-89
2022/10/27 01:27:20;;;;;;;25.33;6.47;;;;;;;;;;6210855;23;20016;-89
2022/10/27 01:30:12;;;;;;;22.05;6.20;;;;;;;;;;6211312;23;20516;-89
2022/10/27 01:32:56;;;;;;;19.58;6.32;;;;;;;;;;6213099;23;20012;-91
2022/10/27 01:35:37;;;;;;;25.08;6.85;;;;;;;;;;6211113;23;20429;-89
2022/10/27 01:38:10;;;;;;;27.52;6.50;;;;;;;;;;6211181;23;20082;-90
2022/10/27 01:40:39;;;;;;;16.40;6.10;;;;;;;;;;6209168;23;20004;-89
2022/10/27 01:43:09;;;;;;;16.65;6.60;;;;;;;;;;6207058;23;20016;-89
2022/10/27 01:45:36;;;;;;;22.05;6.50;;;;;;;;;;6209254;23;20009;-89
2022/10/27 01:48:04;;;;;;;20.45;8.05;;;;;;;;;;6211310;23;20008;-89
2022/10/27 01:50:32;;;;;;;30.88;8.77;;;;;;;;;;6191816;22;20419;-89
2022/10/27 01:53:05;;;;;;;22.58;6.68;;;;;;;;;;6148565;23;20014;-90
2022/10/27 01:55:37;;;;;;;26.42;6.63;;;;;;;;;;6149572;23;20010;-88
2022/10/27 01:58:08;;;;;;;20.58;7.22;;;;;;;;;;6150622;23;20013;-89
2022/10/27 02:00:42;;;;;;;15.00;8.45;;;;;;;;;;6151182;23;20064;-90
2022/10/27 02:03:14;;;;;;;16.98;7.07;;;;;;;;;;6153642;23;20449;-93
2022/10/27 02:05:50;;;;;;;20.50;7.07;;;;;;;;;;6154121;23;20262;-91
2022/10/27 02:08:39;;;;;;;14.80;6.93;;;;;;;;;;6155461;23;20010;-90
2022/10/27 02:11:06;;;;;;;19.27;7.10;;;;;;;;;;6146875;23;20013;-89
2022/10/27 02:13:34;;;;;;;12.60;6.95;;;;;;;;;;6158448;23;20326;-90
2022/10/27 02:16:03;;;;;;;15.05;7.22;;;;;;;;;;6156627;23;20009;-89
2022/10/27 02:18:32;;;;;;;19.00;8.23;;;;;;;;;;6157818;23;20507;-89
2022/10/27 02:21:01;;;;;;;22.63;8.55;;;;;;;;;;6154113;23;20053;-90
2022/10/27 02:23:27;;;;;;;21.98;8.48;;;;;;;;;;6151294;23;20459;-90
2022/10/27 02:26:12;;;;;;;20.75;7.88;;;;;;;;;;6125451;23;20433;-90
2022/10/27 02:28:41;;;;;;;22.65;8.05;;;;;;;;;;6150880;23;20012;-89
2022/10/27 02:31:08;;;;;;;20.45;7.68;;;;;;;;;;6149641;23;20012;-90
2022/10/27 02:33:34;;;;;;;18.02;7.63;;;;;;;;;;6149310;23;20064;-89
2022/10/27 02:36:00;;;;;;;14.93;7.80;;;;;;;;;;6126898;23;20340;-89
2022/10/27 02:38:27;;;;;;;20.35;7.57;;;;;;;;;;6148685;23;20394;-89
2022/10/27 02:40:54;;;;;;;24.17;8.07;;;;;;;;;;6125463;23;20005;-89
2022/10/27 02:43:23;;;;;;;21.80;8.10;;;;;;;;;;6121916;23;20112;-88
2022/10/27 02:45:49;;;;;;;22.95;7.85;;;;;;;;;;6124492;23;20010;-90
2022/10/27 02:48:15;;;;;;;17.83;8.25;;;;;;;;;;6125844;23;20014;-95
2022/10/27 02:50:41;;;;;;;28.25;8.05;;;;;;;;;;6135865;23;20040;-96
2022/10/27 02:53:08;;;;;;;18.95;7.88;;;;;;;;;;6129402;23;20040;-95
2022/10/27 02:55:34;;;;;;;24.85;7.07;;;;;;;;;;6131917;23;20096;-94
2022/10/27 02:58:00;;;;;;;20.50;7.28;;;;;;;;;;6131371;23;20024;-94
2022/10/27 03:00:26;;;;;;;15.35;8.07;;;;;;;;;;6132271;23;20013;-95
2022/10/27 03:02:55;;;;;;;20.52;8.40;;;;;;;;;;6132300;23;20009;-96
2022/10/27 03:05:21;;;;;;;18.02;6.97;;;;;;;;;;6129090;23;20005;-95
2022/10/27 03:07:47;;;;;;;21.10;7.95;;;;;;;;;;6132363;23;20013;-94
2022/10/27 03:10:13;;;;;;;22.33;7.70;;;;;;;;;;6154611;23;20426;-94
2022/10/27 03:12:39;;;;;;;25.17;8.07;;;;;;;;;;6132532;23;20463;-94
2022/10/27 03:15:06;;;;;;;18.15;8.02;;;;;;;;;;6128770;23;20443;-94
2022/10/27 03:17:32;;;;;;;23.38;7.43;;;;;;;;;;6153050;23;20394;-95
2022/10/27 03:19:58;;;;;;;23.45;8.77;;;;;;;;;;6154330;23;20002;-95
2022/10/27 03:22:24;;;;;;;21.25;8.02;;;;;;;;;;6131155;23;20399;-95
2022/10/27 03:24:50;;;;;;;32.83;8.63;;;;;;;;;;6154137;23;20085;-93
2022/10/27 03:27:17;;;;;;;29.40;7.85;;;;;;;;;;6130392;23;20013;-92
2022/10/27 03:29:43;;;;;;;26.67;8.65;;;;;;;;;;6129006;23;20037;-95
2022/10/27 03:32:09;;;;;;;28.33;7.28;;;;;;;;;;6155633;23;20014;-96
2022/10/27 03:34:35;;;;;;;23.48;8.48;;;;;;;;;;6129018;23;20017;-92
2022/10/27 03:37:04;;;;;;;24.20;8.93;;;;;;;;;;6130629;23;20021;-96
2022/10/27 03:39:30;;;;;;;21.85;7.97;;;;;;;;;;6130195;23;20608;-95
2022/10/27 03:41:56;;;;;;;22.73;7.80;;;;;;;;;;6130105;23;20010;-93
2022/10/27 03:44:23;;;;;;;23.67;8.93;;;;;;;;;;6154590;23;20053;-93
2022/10/27 03:46:49;;;;;;;20.88;8.50;;;;;;;;;;6128783;23;20029;-95
2022/10/27 03:49:15;;;;;;;22.98;8.52;;;;;;;;;;6128764;23;20014;-96
2022/10/27 03:51:41;;;;;;;23.73;8.15;;;;;;;;;;6125243;23;20044;-90
2022/10/27 03:54:07;;;;;;;22.48;8.20;;;;;;;;;;6152621;23;20005;-96
2022/10/27 03:56:34;;;;;;;21.63;8.48;;;;;;;;;;6126511;23;20067;-96
2022/10/27 03:59:00;;;;;;;15.65;7.97;;;;;;;;;;6129438;23;20010;-96
2022/10/27 04:01:26;;;;;;;17.92;8.75;;;;;;;;;;6130218;23;20096;-96
2022/10/27 04:03:52;;;;;;;29.45;8.90;;;;;;;;;;6128713;23;20532;-92
2022/10/27 04:06:18;;;;;;;25.50;10.48;;;;;;;;;;6126914;23;20014;-94
2022/10/27 04:08:45;;;;;;;30.83;10.15;;;;;;;;;;6155012;23;20520;-94
2022/10/27 04:11:11;;;;;;;31.50;10.65;;;;;;;;;;6129925;23;20014;-96
2022/10/27 04:13:40;;;;;;;22.42;9.30;;;;;;;;;;6132017;23;20488;-96
2022/10/27 04:16:09;;;;;;;19.88;8.90;;;;;;;;;;6130115;23;20554;-95
2022/10/27 04:18:35;;;;;;;24.35;9.73;;;;;;;;;;6136619;23;20009;-96
2022/10/27 04:21:02;;;;;;;20.80;10.00;;;;;;;;;;6166280;23;19998;-94
2022/10/27 04:23:28;;;;;;;23.63;10.07;;;;;;;;;;6159183;23;20009;-95
2022/10/27 04:25:54;;;;;;;28.98;10.35;;;;;;;;;;6135143;23;20010;-95
2022/10/27 04:28:20;;;;;;;27.13;9.82;;;;;;;;;;6159162;23;20010;-95
2022/10/27 04:30:47;;;;;;;27.70;9.63;;;;;;;;;;6159704;23;20009;-96
2022/10/27 04:33:20;;;;;;;22.65;9.75;;;;;;;;;;6138220;23;20010;-95
2022/10/27 04:35:46;;;;;;;23.60;10.18;;;;;;;;;;6163238;23;20009;-89
2022/10/27 04:38:12;;;;;;;37.03;10.25;;;;;;;;;;6130586;23;20334;-90
2022/10/27 04:40:38;;;;;;;28.02;9.57;;;;;;;;;;6132399;23;20017;-89
2022/10/27 04:43:06;;;;;;;32.88;10.35;;;;;;;;;;6152567;23;20264;-90
2022/10/27 04:45:32;;;;;;;25.23;11.32;;;;;;;;;;6149431;23;20365;-89
2022/10/27 04:47:58;;;;;;;23.25;11.35;;;;;;;;;;6126273;23;20067;-89
2022/10/27 04:50:24;;;;;;;26.40;11.80;;;;;;;;;;6130383;23;20032;-89
2022/10/27 04:52:54;;;;;;;30.08;12.00;;;;;;;;;;6150005;23;20100;-89
2022/10/27 04:55:20;;;;;;;26.35;11.15;;;;;;;;;;6149559;23;20013;-89
2022/10/27 04:57:46;;;;;;;28.70;11.90;;;;;;;;;;6125527;23;20017;-89
2022/10/27 05:00:12;;;;;;;23.33;10.98;;;;;;;;;;6125281;23;20009;-89
2022/10/27 05:02:38;;;;;;;22.73;9.63;;;;;;;;;;6123043;23;20013;-89
2022/10/27 05:05:05;;;;;;;23.30;10.52;;;;;;;;;;6145818;23;20010;-89
2022/10/27 05:07:31;;;;;;;30.08;10.75;;;;;;;;;;6147705;23;20032;-88
2022/10/27 05:09:57;;;;;;;23.30;9.98;;;;;;;;;;6150715;23;20080;-89
2022/10/27 05:12:26;;;;;;;23.83;9.60;;;;;;;;;;6123804;23;20112;-89
2022/10/27 05:14:52;;;;;;;26.00;9.93;;;;;;;;;;6129163;23;20014;-96
2022/10/27 05:17:18;;;;;;;21.48;9.30;;;;;;;;;;6130805;23;20017;-94
2022/10/27 05:19:44;;;;;;;29.67;9.80;;;;;;;;;;6132391;23;20048;-93
2022/10/27 05:22:10;;;;;;;20.25;9.95;;;;;;;;;;6131640;23;20013;-96
2022/10/27 05:24:36;;;;;;;25.23;9.10;;;;;;;;;;6131178;23;20060;-94
2022/10/27 05:27:02;;;;;;;22.52;9.73;;;;;;;;;;6132775;23;20052;-95
2022/10/27 05:29:30;;;;;;;20.20;11.43;;;;;;;;;;6157569;23;20013;-93
2022/10/27 05:31:58;;;;;;;25.33;9.35;;;;;;;;;;6131867;23;20725;-94
2022/10/27 05:34:24;;;;;;;26.05;10.00;;;;;;;;;;6132026;23;20084;-95
2022/10/27 05:36:50;;;;;;;28.98;10.77;;;;;;;;;;6130445;23;20017;-95
2022/10/27 05:39:16;;;;;;;26.23;10.13;;;;;;;;;;6132358;23;20010;-96
2022/10/27 05:41:42;;;;;;;19.55;10.30;;;;;;;;;;6132361;23;20010;-94
2022/10/27 05:44:08;;;;;;;25.98;9.75;;;;;;;;;;6133316;23;20018;-96
2022/10/27 05:46:34;;;;;;;19.77;9.77;;;;;;;;;;6156311;23;20064;-96
2022/10/27 05:49:07;;;;;;;25.73;10.40;;;;;;;;;;6130061;23;20013;-90
2022/10/27 05:51:34;;;;;;;25.45;9.40;;;;;;;;;;6129938;23;20026;-89
2022/10/27 05:54:00;;;;;;;27.02;10.25;;;;;;;;;;6150817;23;20017;-90
2022/10/27 05:56:26;;;;;;;24.05;10.48;;;;;;;;;;6125283;23;20041;-90
2022/10/27 05:58:52;;;;;;;20.48;9.25;;;;;;;;;;6152737;23;20013;-90
2022/10/27 06:01:18;;;;;;;27.52;9.88;;;;;;;;;;6149489;23;20013;-89
2022/10/27 06:03:44;;;;;;;26.80;10.18;;;;;;;;;;6126967;23;20011;-90
2022/10/27 06:06:11;;;;;;;22.88;10.50;;;;;;;;;;6149055;23;20002;-89
2022/10/27 06:08:40;;;;;;;27.02;10.90;;;;;;;;;;6125574;23;20097;-90
2022/10/27 06:11:06;;;;;;;23.63;10.88;;;;;;;;;;6151680;23;20006;-89
2022/10/27 06:13:32;;;;;;;27.83;9.77;;;;;;;;;;6153410;23;20010;-89
2022/10/27 06:15:58;;;;;;;33.53;11.38;;;;;;;;;;6127942;23;20014;-89
2022/10/27 06:18:24;;;;;;;26.52;10.55;;;;;;;;;;6128766;23;20018;-89
2022/10/27 06:20:51;;;;;;;29.27;11.18;;;;;;;;;;6131336;23;20013;-90
2022/10/27 06:23:17;;;;;;;27.42;12.18;;;;;;;;;;6136625;23;20045;-95
2022/10/27 06:25:43;;;;;;;22.08;9.95;;;;;;;;;;6163628;23;20048;-95
2022/10/27 06:28:09;;;;;;;24.67;10.13;;;;;;;;;;6138404;23;20417;-96
2022/10/27 06:30:36;;;;;;;17.67;9.43;;;;;;;;;;6138480;23;20021;-96
2022/10/27 06:33:02;;;;;;;21.38;10.07;;;;;;;;;;6163781;23;20093;-93
2022/10/27 06:35:31;;;;;;;27.60;10.15;;;;;;;;;;6166691;23;20021;-95
2022/10/27 06:37:57;;;;;;;25.13;11.45;;;;;;;;;;6146795;23;20045;-93
2022/10/27 06:40:23;;;;;;;22.92;10.55;;;;;;;;;;6148444;23;20061;-89
2022/10/27 06:42:49;;;;;;;28.92;11.60;;;;;;;;;;6139191;23;20013;-90
2022/10/27 06:45:17;;;;;;;24.38;11.40;;;;;;;;;;6161034;23;20013;-89
2022/10/27 06:47:43;;;;;;;29.63;11.27;;;;;;;;;;6136701;23;20100;-90
2022/10/27 06:50:15;;;;;;;23.58;11.82;;;;;;;;;;6161385;22;20076;-90
2022/10/27 06:52:41;;;;;;;19.05;11.32;;;;;;;;;;6164622;23;20008;-89
2022/10/27 06:55:08;;;;;;;30.42;12.25;;;;;;;;;;6163631;23;20012;-88
2022/10/27 06:57:41;;;;;;;26.33;11.23;;;;;;;;;;6164072;23;20021;-90
2022/10/27 07:00:08;;;;;;;26.25;11.52;;;;;;;;;;6214033;23;20008;-89
2022/10/27 07:02:34;;;;;;;28.23;11.18;;;;;;;;;;6185315;23;20000;-91
2022/10/27 07:05:00;;;;;;;22.70;11.38;;;;;;;;;;6160682;23;20100;-90
2022/10/27 07:07:27;;;;;;;27.77;10.82;;;;;;;;;;6188133;23;20035;-91
2022/10/27 07:09:53;;;;;;;29.38;10.82;;;;;;;;;;6161450;23;20457;-91
2022/10/27 07:12:19;;;;;;;25.20;9.60;;;;;;;;;;6161285;23;20019;-90
2022/10/27 07:14:46;;;;;;;24.23;9.85;;;;;;;;;;6185486;23;20197;-89
2022/10/27 07:17:12;;;;;;;18.92;9.50;;;;;;;;;;6193124;23;20008;-96
2022/10/27 07:19:38;;;;;;;21.85;10.00;;;;;;;;;;6194126;23;20031;-95
2022/10/27 07:22:05;;;;;;;22.45;9.77;;;;;;;;;;6171209;23;20013;-95
2022/10/27 07:24:31;;;;;;;27.05;10.15;;;;;;;;;;6218642;23;20012;-95
2022/10/27 07:26:57;;;;;;;23.92;10.27;;;;;;;;;;6171334;23;20013;-94
2022/10/27 07:29:35;;;;;;;20.98;10.00;;;;;;;;;;6168827;23;20017;-95
2022/10/27 07:32:10;;;;;;;19.52;9.60;;;;;;;;;;6195406;23;20008;-95
2022/10/27 07:34:39;;;;;;;21.60;8.60;;;;;;;;;;6194419;23;20091;-96
2022/10/27 07:37:05;;;;;;;22.42;8.70;;;;;;;;;;6194412;23;20024;-96
2022/10/27 07:39:32;;;;;;;21.30;7.97;;;;;;;;;;6219441;23;20009;-93
2022/10/27 07:41:58;;;;;;;20.45;8.45;;;;;;;;;;6218092;23;20424;-96
2022/10/27 07:44:28;;;;;;;19.35;9.20;;;;;;;;;;6218932;23;20019;-93
2022/10/27 07:46:54;;;;;;;17.90;8.32;;;;;;;;;;6219343;23;20008;-94
2022/10/27 07:52:10;;;;;;;22.80;8.05;;;;;;;;;;6206311;22;20036;-95
2022/10/27 07:54:41;;;;;;;12.38;7.63;;;;;;;;;;6219505;23;20095;-96
2022/10/27 07:57:21;;;;;;;19.45;7.88;;;;;;;;;;6202149;23;20028;-96
2022/10/27 07:59:48;;;;;;;14.90;7.13;;;;;;;;;;6201448;23;20024;-95
2022/10/27 08:02:29;;;;;;;17.13;7.45;;;;;;;;;;6225902;23;20083;-93
2022/10/27 08:05:02;;;;;;;13.88;6.70;;;;;;;;;;6202851;23;20068;-96
2022/10/27 08:07:34;;;;;;;17.27;6.85;;;;;;;;;;6199410;23;20084;-94
2022/10/27 08:10:04;;;;;;;19.27;6.57;;;;;;;;;;6201279;23;20004;-92
2022/10/27 08:12:30;;;;;;;15.35;6.63;;;;;;;;;;6201862;23;20056;-93
2022/10/27 08:14:59;;;;;;;13.80;6.40;;;;;;;;;;6224613;23;20005;-95
2022/10/27 08:17:38;;;;;;;15.63;5.70;;;;;;;;;;6226341;23;20016;-95
2022/10/27 08:20:10;;;;;;;15.65;6.72;;;;;;;;;;6203178;23;20024;-96
2022/10/27 08:22:40;;;;;;;13.48;5.97;;;;;;;;;;6179219;23;20072;-95
2022/10/27 08:25:08;;;;;;;11.32;5.93;;;;;;;;;;6200664;23;20025;-96
2022/10/27 08:27:34;;;;;;;14.25;6.68;;;;;;;;;;6204192;23;20420;-96
2022/10/27 08:30:03;;;;;;;15.18;7.88;;;;;;;;;;6221054;23;20019;-94
2022/10/27 08:32:30;;;;;;;14.85;6.03;;;;;;;;;;6225867;23;20032;-96
2022/10/27 08:34:56;;;;;;;19.63;6.53;;;;;;;;;;6200364;23;20019;-96
2022/10/27 08:37:23;;;;;;;19.95;5.40;;;;;;;;;;6228703;23;20015;-94
2022/10/27 08:39:52;;;;;;;9.27;5.85;;;;;;;;;;6227950;23;20005;-93
2022/10/27 08:42:24;;;;;;;10.63;5.82;;;;;;;;;;6207359;23;20091;-95
2022/10/27 08:45:02;;;;;;;14.00;6.30;;;;;;;;;;6232396;23;19999;-94
2022/10/27 08:47:28;;;;;;;15.93;5.90;;;;;;;;;;6234403;23;20043;-94
2022/10/27 08:49:57;;;;;;;13.95;6.03;;;;;;;;;;6234034;23;20032;-93
2022/10/27 08:52:24;;;;;;;11.38;6.05;;;;;;;;;;6205081;22;20024;-92
2022/10/27 08:54:53;;;;;;;14.65;6.20;;;;;;;;;;6172939;23;20020;-96
2022/10/27 08:57:24;;;;;;;14.10;5.43;;;;;;;;;;6170990;23;20429;-94
2022/10/27 08:59:57;;;;;;;10.55;5.50;;;;;;;;;;6170566;23;20010;-94
2022/10/27 09:02:36;;;;;;;16.10;6.18;;;;;;;;;;6170002;23;20315;-90
2022/10/27 09:05:23;;;;;;;13.85;5.75;;;;;;;;;;6151561;23;20006;-90
2022/10/27 09:07:55;;;;;;;10.18;5.95;;;;;;;;;;6152288;23;20377;-90
2022/10/27 09:10:22;;;;;;;11.38;5.15;;;;;;;;;;6152924;23;20032;-90
2022/10/27 09:12:54;;;;;;;12.02;5.57;;;;;;;;;;6151513;23;20025;-90
2022/10/27 09:15:23;;;;;;;13.55;4.50;;;;;;;;;;6151297;23;20067;-92
2022/10/27 09:17:57;;;;;;;10.90;5.45;;;;;;;;;;6150870;23;20120;-91
2022/10/27 09:20:26;;;;;;;19.58;7.68;;;;;;;;;;6152539;23;20005;-91
2022/10/27 09:22:53;;;;;;;12.27;6.05;;;;;;;;;;6151779;23;20397;-89
2022/10/27 09:25:22;;;;;;;16.25;5.95;;;;;;;;;;6151696;23;20044;-89
2022/10/27 09:27:54;;;;;;;10.77;5.22;;;;;;;;;;6151482;23;20117;-90
2022/10/27 09:30:20;;;;;;;8.82;4.72;;;;;;;;;;6151954;23;20013;-90
2022/10/27 09:32:49;;;;;;;11.65;5.05;;;;;;;;;;6150645;23;20009;-89
2022/10/27 09:35:25;;;;;;;11.90;4.53;;;;;;;;;;6151959;23;20009;-91
2022/10/27 09:37:51;;;;;;;11.13;5.35;;;;;;;;;;6149611;23;20346;-90
2022/10/27 09:40:20;;;;;;;10.05;4.78;;;;;;;;;;6127169;23;20009;-90
2022/10/27 09:42:48;;;;;;;14.50;5.15;;;;;;;;;;6151288;23;20109;-92
2022/10/27 09:45:16;;;;;;;12.05;5.05;;;;;;;;;;6150598;23;20442;-91
2022/10/27 09:47:48;;;;;;;13.18;6.25;;;;;;;;;;6151738;23;20013;-89
2022/10/27 09:50:22;;;;;;;9.10;4.70;;;;;;;;;;6151935;23;20345;-90
2022/10/27 09:52:55;;;;;;;14.00;5.70;;;;;;;;;;6150361;23;20025;-90
2022/10/27 09:55:21;;;;;;;13.95;5.28;;;;;;;;;;6151790;23;20038;-90
2022/10/27 09:57:49;;;;;;;12.43;4.97;;;;;;;;;;6153341;23;20044;-90
2022/10/27 10:00:15;;;;;;;18.50;4.97;;;;;;;;;;6153199;23;20076;-90
2022/10/27 10:02:43;;;;;;;11.73;4.88;;;;;;;;;;6154124;23;20001;-90
2022/10/27 10:05:27;;;;;;;10.32;4.20;;;;;;;;;;6152216;23;20012;-91
2022/10/27 10:08:10;;;;;;;9.77;3.88;;;;;;;;;;6153538;23;20505;-91
2022/10/27 10:10:36;;;;;;;13.85;4.28;;;;;;;;;;6154963;23;20018;-91
2022/10/27 10:13:03;;;;;;;6.90;4.40;;;;;;;;;;6131275;23;20010;-91
2022/10/27 10:15:36;;;;;;;12.07;3.90;;;;;;;;;;6153483;23;20013;-91
2022/10/27 10:18:02;;;;;;;12.23;3.92;;;;;;;;;;6129582;23;20341;-90
2022/10/27 10:20:32;;;;;;;7.78;3.65;;;;;;;;;;6128013;23;20010;-90
2022/10/27 10:22:59;;;;;;;6.25;3.75;;;;;;;;;;6151614;23;20002;-90
2022/10/27 10:25:31;;;;;;;9.90;5.38;;;;;;;;;;6127636;23;20014;-90
2022/10/27 10:27:59;;;;;;;9.60;4.20;;;;;;;;;;6151804;23;20005;-89
2022/10/27 10:30:26;;;;;;;14.68;4.15;;;;;;;;;;6151272;23;20010;-90
2022/10/27 10:32:56;;;;;;;5.65;3.28;;;;;;;;;;6149712;23;20013;-91
2022/10/27 10:35:41;;;;;;;9.88;3.53;;;;;;;;;;6151437;23;20016;-90
2022/10/27 10:38:23;;;;;;;8.30;3.67;;;;;;;;;;6150753;23;20449;-91
2022/10/27 10:40:56;;;;;;;7.38;3.30;;;;;;;;;;6151159;23;20005;-90
2022/10/27 10:43:24;;;;;;;7.38;2.95;;;;;;;;;;6149669;23;20006;-91
2022/10/27 10:45:54;;;;;;;14.73;4.07;;;;;;;;;;6125931;23;20041;-90
2022/10/27 10:48:26;;;;;;;11.10;3.03;;;;;;;;;;6149772;23;20068;-90
2022/10/27 10:51:06;;;;;;;9.77;3.10;;;;;;;;;;6160581;22;20019;-90
2022/10/27 10:53:35;;;;;;;10.25;2.75;;;;;;;;;;6210670;23;20016;-91
2022/10/27 10:56:04;;;;;;;6.93;2.90;;;;;;;;;;6210927;23;20051;-91
2022/10/27 10:58:31;;;;;;;6.95;2.53;;;;;;;;;;6210984;23;20067;-89
2022/10/27 11:01:05;;;;;;;6.55;2.53;;;;;;;;;;6209894;23;20004;-91
2022/10/27 11:03:36;;;;;;;5.30;2.45;;;;;;;;;;6184710;23;20012;-90
2022/10/27 11:06:03;;;;;;;8.27;2.20;;;;;;;;;;6184698;23;20070;-90
2022/10/27 11:08:37;;;;;;;5.40;2.55;;;;;;;;;;6210555;23;20066;-91
2022/10/27 11:11:04;;;;;;;7.75;2.13;;;;;;;;;;6210219;23;20055;-90
2022/10/27 11:13:42;;;;;;;5.07;1.85;;;;;;;;;;6210227;23;20012;-91
2022/10/27 11:16:09;;;;;;;7.80;2.20;;;;;;;;;;6209849;23;20009;-90
2022/10/27 11:18:48;;;;;;;5.88;1.92;;;;;;;;;;6209448;23;20058;-90
2022/10/27 11:21:21;;;;;;;4.22;2.85;;;;;;;;;;6211065;23;20028;-91
2022/10/27 11:23:49;;;;;;;4.05;2.00;;;;;;;;;;6210020;23;20034;-90
2022/10/27 11:26:18;;;;;;;7.03;1.73;;;;;;;;;;6209977;23;20421;-92
2022/10/27 11:29:07;;;;;;;8.50;2.33;;;;;;;;;;6211074;23;20036;-91
2022/10/27 11:31:33;;;;;;;3.60;1.63;;;;;;;;;;6208930;23;20008;-90
2022/10/27 11:34:17;;;;;;;6.10;2.13;;;;;;;;;;6210908;23;20004;-90
2022/10/27 11:36:54;;;;;;;9.15;2.28;;;;;;;;;;6209784;23;20009;-90
2022/10/27 11:39:23;;;;;;;4.28;1.80;;;;;;;;;;6210854;23;20384;-91
2022/10/27 11:41:54;;;;;;;7.32;1.70;;;;;;;;;;6209468;23;20005;-90
2022/10/27 11:44:34;;;;;;;3.45;1.48;;;;;;;;;;6209209;23;20429;-91
2022/10/27 11:47:10;;;;;;;6.35;1.98;;;;;;;;;;6211166;23;20012;-90
2022/10/27 11:49:47;;;;;;;9.25;2.40;;;;;;;;;;6209992;23;20020;-91
2022/10/27 11:52:25;;;;;;;6.07;1.25;;;;;;;;;;6200227;22;20018;-90
2022/10/27 11:54:52;;;;;;;7.90;1.70;;;;;;;;;;6150696;23;20009;-91
2022/10/27 11:57:24;;;;;;;5.53;1.80;;;;;;;;;;6150895;23;20010;-91
2022/10/27 12:00:11;;;;;;;6.07;1.92;;;;;;;;;;6151074;23;20005;-91
2022/10/27 12:02:56;;;;;;;8.48;2.38;;;;;;;;;;6149211;23;20064;-90
2022/10/27 12:05:29;;;;;;;4.22;1.90;;;;;;;;;;6149352;23;20013;-92
2022/10/27 12:08:13;;;;;;;3.25;1.60;;;;;;;;;;6150116;23;20434;-90
2022/10/27 12:10:46;;;;;;;4.75;2.00;;;;;;;;;;6150775;23;20088;-91
2022/10/27 12:13:24;;;;;;;4.90;1.90;;;;;;;;;;6150904;23;20012;-90
2022/10/27 12:16:02;;;;;;;17.02;2.05;;;;;;;;;;6150513;23;20076;-90
2022/10/27 12:18:38;;;;;;;5.78;2.30;;;;;;;;;;6151587;23;20013;-90
2022/10/27 12:21:09;;;;;;;9.65;1.83;;;;;;;;;;6152432;23;20006;-90
2022/10/27 12:23:39;;;;;;;7.70;2.25;;;;;;;;;;6149179;23;20013;-90
2022/10/27 12:26:12;;;;;;;2.63;1.92;;;;;;;;;;6151361;23;20486;-90
2022/10/27 12:28:38;;;;;;;3.22;1.50;;;;;;;;;;6151372;23;20493;-90
2022/10/27 12:31:17;;;;;;;4.45;1.88;;;;;;;;;;6132388;23;20005;-94
2022/10/27 12:33:55;;;;;;;4.90;1.90;;;;;;;;;;6176887;23;20025;-94
2022/10/27 12:36:25;;;;;;;2.60;1.60;;;;;;;;;;6182681;22;20015;-91
2022/10/27 12:39:00;;;;;;;6.18;1.60;;;;;;;;;;6247510;22;20020;-92
2022/10/27 12:41:37;;;;;;;3.70;1.63;;;;;;;;;;6206708;23;20024;-91
2022/10/27 12:44:12;;;;;;;4.85;1.70;;;;;;;;;;6211422;23;20036;-92
2022/10/27 12:46:53;;;;;;;4.57;1.80;;;;;;;;;;6210976;23;20469;-91
2022/10/27 12:49:20;;;;;;;7.75;1.73;;;;;;;;;;6184290;23;20447;-92
2022/10/27 12:52:10;;;;;;;13.80;2.15;;;;;;;;;;6187406;23;19997;-92
2022/10/27 12:54:36;;;;;;;6.50;2.28;;;;;;;;;;6185889;23;20000;-92
2022/10/27 12:57:29;;;;;;;4.55;1.98;;;;;;;;;;6184889;23;20352;-92
2022/10/27 13:00:12;;;;;;;7.55;2.08;;;;;;;;;;6186693;23;20008;-92
2022/10/27 13:02:56;;;;;;;6.72;1.88;;;;;;;;;;6184946;23;20005;-92
2022/10/27 13:05:39;;;;;;;4.75;1.60;;;;;;;;;;6182661;23;20316;-92
2022/10/27 13:08:18;;;;;;;3.30;1.45;;;;;;;;;;6185706;23;20023;-92
2022/10/27 13:10:44;;;;;;;7.72;1.90;;;;;;;;;;6183743;23;20019;-92
2022/10/27 13:13:50;;;;;;;5.63;2.03;;;;;;;;;;6187990;23;20012;-91
2022/10/27 13:16:21;;;;;;;6.32;2.20;;;;;;;;;;6216898;23;20095;-91
2022/10/27 13:18:58;;;;;;;4.45;2.10;;;;;;;;;;6192309;23;20001;-91
2022/10/27 13:21:24;;;;;;;4.63;2.20;;;;;;;;;;6192103;23;20020;-92
2022/10/27 13:23:53;;;;;;;8.45;1.77;;;;;;;;;;6193434;23;20004;-90
2022/10/27 13:26:26;;;;;;;7.00;2.00;;;;;;;;;;6191669;23;20024;-92
2022/10/27 13:28:58;;;;;;;13.48;1.88;;;;;;;;;;6196267;23;20267;-92
2022/10/27 13:31:28;;;;;;;3.25;1.65;;;;;;;;;;6218309;23;20012;-92
2022/10/27 13:34:09;;;;;;;9.18;1.55;;;;;;;;;;6196323;23;20039;-92
2022/10/27 13:36:45;;;;;;;6.47;1.80;;;;;;;;;;6192327;23;20452;-90
2022/10/27 13:39:11;;;;;;;;;;;;;;;;;;6200043;22;20055;-92
2022/10/27 13:41:56;;;;;;;3.28;1.80;;;;;;;;;;6206060;23;19953;-91
2022/10/27 13:44:26;;;;;;;4.35;1.77;;;;;;;;;;6196420;23;20009;-91
2022/10/27 13:47:05;;;;;;;4.20;1.52;;;;;;;;;;6198899;23;20032;-91
2022/10/27 13:49:41;;;;;;;5.25;2.22;;;;;;;;;;6193062;23;20013;-92
2022/10/27 13:52:16;;;;;;;8.45;2.28;;;;;;;;;;6212110;23;20018;-89
2022/10/27 13:54:49;;;;;;;9.30;2.37;;;;;;;;;;6184202;23;20050;-90
2022/10/27 13:57:34;;;;;;;7.07;1.70;;;;;;;;;;6185983;23;20605;-91
2022/10/27 14:00:09;;;;;;;8.77;2.08;;;;;;;;;;6184080;23;20095;-90
2022/10/27 14:02:56;;;;;;;6.85;2.10;;;;;;;;;;6182081;23;20087;-90
2022/10/27 14:05:28;;;;;;;9.55;2.33;;;;;;;;;;6109512;23;20006;-92
2022/10/27 14:07:54;;;;;;;3.60;1.88;;;;;;;;;;6186870;23;20012;-91
2022/10/27 14:10:21;;;;;;;5.25;1.92;;;;;;;;;;6161491;23;20023;-91
2022/10/27 14:12:47;;;;;;;5.90;1.95;;;;;;;;;;6187787;23;20008;-89
2022/10/27 14:15:23;;;;;;;7.90;2.42;;;;;;;;;;6183989;23;20020;-91
2022/10/27 14:17:49;;;;;;;9.25;1.77;;;;;;;;;;6188034;23;20008;-91
2022/10/27 14:20:20;;;;;;;13.32;2.58;;;;;;;;;;6163015;23;20009;-91
2022/10/27 14:22:54;;;;;;;9.68;2.10;;;;;;;;;;6186897;23;20073;-90
2022/10/27 14:25:28;;;;;;;3.72;2.15;;;;;;;;;;6187026;23;20016;-91
2022/10/27 14:28:17;;;;;;;7.00;2.33;;;;;;;;;;6186863;23;20009;-93
2022/10/27 14:30:48;;;;;;;7.18;2.28;;;;;;;;;;6187177;23;20016;-91
2022/10/27 14:33:26;;;;;;;6.63;3.22;;;;;;;;;;6185320;23;20015;-92
2022/10/27 14:36:11;;;;;;;4.03;2.35;;;;;;;;;;6211932;23;20149;-92
2022/10/27 14:38:37;;;;;;;9.43;2.55;;;;;;;;;;6184585;23;20009;-91
2022/10/27 14:41:12;;;;;;;12.32;2.53;;;;;;;;;;6134744;22;20120;-93
2022/10/27 14:43:40;;;;;;;6.82;2.50;;;;;;;;;;6151597;23;20426;-91
2022/10/27 14:46:09;;;;;;;7.32;2.38;;;;;;;;;;6151101;23;20021;-92
2022/10/27 14:48:35;;;;;;;4.35;2.22;;;;;;;;;;6127324;23;20009;-92
2022/10/27 14:51:11;;;;;;;8.30;2.30;;;;;;;;;;6151104;23;20096;-91